Time;durP1;ratioP1;P1;durP2;ratioP2;P2;SDS_P1;SDS_P2;PMS_P1;PMS_P2;Temp;Humidity;BMP_temperature;BMP_pressure;BME280_temperature;BME280_humidity;BME280_pressure;Samples;Min_cycle;Max_cycle;Signal;HPM_P1;HPM_P2
2023/01/30 00:00:11;;;;;;;20.90;3.80;;;6.20;81.60;;;;;;4149481;28;20032;-90
2023/01/30 00:02:12;;;;;;;27.45;4.57;;;6.20;81.60;;;;;;4147522;28;20105;-90
2023/01/30 00:04:13;;;;;;;20.92;3.70;;;6.20;81.70;;;;;;4152968;28;20037;-90
2023/01/30 00:06:14;;;;;;;16.80;3.13;;;6.20;81.70;;;;;;4167946;28;20029;-88
2023/01/30 00:08:16;;;;;;;24.67;3.40;;;6.20;81.70;;;;;;4136637;28;20030;-89
2023/01/30 00:10:17;;;;;;;23.58;3.95;;;6.20;81.80;;;;;;4149892;28;20113;-88
2023/01/30 00:12:26;;;;;;;15.75;3.30;;;6.20;81.90;;;;;;4159881;28;20025;-88
2023/01/30 00:14:46;;;;;;;24.08;3.25;;;6.20;81.80;;;;;;4155552;28;20030;-90
2023/01/30 00:17:07;;;;;;;17.23;3.20;;;6.20;81.80;;;;;;4153044;28;20048;-89
2023/01/30 00:19:27;;;;;;;19.45;3.15;;;6.20;81.80;;;;;;4149124;28;20029;-89
2023/01/30 00:21:28;;;;;;;16.75;2.85;;;6.30;81.80;;;;;;4153303;28;20697;-88
2023/01/30 00:23:33;;;;;;;13.77;3.05;;;6.20;81.80;;;;;;4154709;28;20058;-88
2023/01/30 00:25:34;;;;;;;15.52;3.28;;;6.20;81.90;;;;;;4155757;28;20018;-89
2023/01/30 00:27:55;;;;;;;16.73;3.15;;;6.20;81.90;;;;;;4156019;28;20043;-88
2023/01/30 00:30:16;;;;;;;19.25;2.92;;;6.30;81.90;;;;;;4147285;28;20034;-88
2023/01/30 00:32:37;;;;;;;15.35;3.00;;;6.20;81.90;;;;;;4151646;28;20044;-88
2023/01/30 00:34:57;;;;;;;7.93;2.13;;;6.40;82.10;;;;;;4155689;28;20040;-88
2023/01/30 00:37:18;;;;;;;16.13;2.53;;;6.20;82.00;;;;;;4153922;28;20050;-89
2023/01/30 00:39:38;;;;;;;24.00;2.65;;;6.30;82.10;;;;;;4152396;28;20038;-87
2023/01/30 00:47:17;;;;;;;12.82;2.40;;;6.30;82.00;;;;;;4150150;28;20084;-89
2023/01/30 00:49:19;;;;;;;16.15;3.13;;;6.30;82.10;;;;;;4157057;28;20029;-88
2023/01/30 00:51:20;;;;;;;12.18;2.35;;;6.30;82.10;;;;;;4154503;28;20025;-89
2023/01/30 00:53:20;;;;;;;9.60;2.05;;;6.30;82.20;;;;;;4150732;28;20040;-89
2023/01/30 00:55:21;;;;;;;16.88;2.60;;;6.30;82.20;;;;;;4153439;28;20494;-87
2023/01/30 00:57:21;;;;;;;17.75;2.15;;;6.40;82.30;;;;;;4140550;28;20021;-89
2023/01/30 00:59:22;;;;;;;19.65;2.15;;;6.30;82.40;;;;;;4151080;28;20093;-89
2023/01/30 01:01:23;;;;;;;9.23;2.00;;;6.30;82.30;;;;;;4154551;28;20056;-90
2023/01/30 01:03:24;;;;;;;11.40;1.80;;;6.30;82.40;;;;;;4154052;28;20022;-90
2023/01/30 01:05:25;;;;;;;9.98;2.25;;;6.30;82.50;;;;;;4150078;28;20500;-89
2023/01/30 01:07:26;;;;;;;11.20;1.70;;;6.30;82.50;;;;;;4152708;28;20072;-90
2023/01/30 01:09:27;;;;;;;9.82;2.25;;;6.30;82.50;;;;;;4139277;28;20716;-90
2023/01/30 01:11:27;;;;;;;9.85;1.58;;;6.30;82.50;;;;;;4183615;28;20480;-89
2023/01/30 01:13:29;;;;;;;13.13;1.98;;;6.30;82.60;;;;;;4154460;28;20026;-89
2023/01/30 01:15:29;;;;;;;12.57;1.98;;;6.40;82.70;;;;;;4136469;28;20038;-90
2023/01/30 01:17:30;;;;;;;7.55;2.08;;;6.30;82.70;;;;;;4137561;28;20036;-90
2023/01/30 01:19:31;;;;;;;8.25;1.42;;;6.30;82.70;;;;;;4158088;28;20033;-90
2023/01/30 01:21:31;;;;;;;8.15;1.52;;;6.40;82.90;;;;;;4149239;28;20123;-88
2023/01/30 01:23:32;;;;;;;6.82;1.30;;;6.40;82.90;;;;;;4184039;28;20583;-89
2023/01/30 01:25:33;;;;;;;5.40;1.45;;;6.40;83.00;;;;;;4152336;28;20044;-90
2023/01/30 01:27:34;;;;;;;9.15;1.27;;;6.40;83.20;;;;;;4150937;28;20029;-91
2023/01/30 01:29:34;;;;;;;7.85;1.63;;;6.40;83.30;;;;;;4149149;28;20033;-89
2023/01/30 01:31:35;;;;;;;20.75;2.13;;;6.30;83.10;;;;;;4147376;28;20512;-88
2023/01/30 01:33:35;;;;;;;19.40;2.67;;;6.30;83.10;;;;;;4137024;28;20030;-89
2023/01/30 01:35:40;;;;;;;14.95;2.20;;;6.30;81.90;;;;;;4129170;28;20041;-89
2023/01/30 01:37:40;;;;;;;13.63;1.83;;;6.30;81.70;;;;;;4139139;28;20040;-88
2023/01/30 01:42:00;;;;;;;15.82;2.40;;;6.20;81.20;;;;;;4153471;28;20033;-89
2023/01/30 01:44:23;;;;;;;18.25;2.65;;;6.20;81.10;;;;;;4157545;28;20128;-89
2023/01/30 01:46:42;;;;;;;23.02;3.17;;;6.20;80.80;;;;;;4161843;28;20101;-87
2023/01/30 01:48:55;;;;;;;18.10;2.40;;;6.20;80.80;;;;;;4158369;28;20571;-88
2023/01/30 01:51:01;;;;;;;16.08;2.63;;;6.30;80.70;;;;;;4150191;28;20189;-89
2023/01/30 01:53:02;;;;;;;23.27;3.60;;;6.10;80.50;;;;;;4140893;28;20512;-90
2023/01/30 01:55:06;;;;;;;17.85;2.00;;;6.10;80.40;;;;;;4160474;28;20022;-90
2023/01/30 01:57:14;;;;;;;17.20;2.70;;;6.00;80.50;;;;;;4140427;28;20116;-90
2023/01/30 01:59:32;;;;;;;18.75;3.03;;;6.00;80.50;;;;;;4140107;28;20375;-88
2023/01/30 02:01:33;;;;;;;24.92;3.45;;;6.00;80.50;;;;;;4167082;28;20017;-87
2023/01/30 02:03:41;;;;;;;24.98;3.35;;;5.90;80.30;;;;;;4155460;28;20171;-89
2023/01/30 02:05:49;;;;;;;22.75;2.85;;;5.90;80.30;;;;;;4173141;28;20037;-89
2023/01/30 02:08:00;;;;;;;26.77;3.67;;;5.90;80.40;;;;;;4141197;28;20034;-88
2023/01/30 02:10:01;;;;;;;24.20;3.33;;;5.90;80.50;;;;;;4154829;28;20432;-89
2023/01/30 02:12:04;;;;;;;;;;;5.80;80.20;;;;;;4170206;28;20070;-89
2023/01/30 02:14:08;;;;;;;25.55;3.35;;;5.90;80.10;;;;;;4141850;28;19909;-89
2023/01/30 02:16:28;;;;;;;30.55;3.22;;;5.80;79.90;;;;;;4176601;28;20439;-87
2023/01/30 02:18:33;;;;;;;18.55;2.45;;;6.00;80.00;;;;;;4140264;28;20080;-88
2023/01/30 02:21:23;;;;;;;20.95;2.83;;;5.80;79.80;;;;;;4151493;28;20452;-89
2023/01/30 02:24:28;;;;;;;17.77;2.47;;;5.70;79.70;;;;;;4154145;28;20041;-89
2023/01/30 02:27:34;;;;;;;20.25;3.10;;;5.70;79.60;;;;;;4169913;28;20087;-88
2023/01/30 02:30:11;;;;;;;18.90;3.50;;;5.70;79.80;;;;;;4145967;28;20414;-90
2023/01/30 02:32:37;;;;;;;27.98;3.08;;;5.70;79.60;;;;;;4173522;28;20033;-88
2023/01/30 02:35:12;;;;;;;25.42;3.38;;;5.60;79.60;;;;;;4146565;28;20026;-88
2023/01/30 02:38:07;;;;;;;33.38;3.33;;;5.60;79.70;;;;;;4147212;28;20118;-86
2023/01/30 02:40:50;;;;;;;31.60;4.68;;;5.60;79.80;;;;;;4145418;28;20417;-89
2023/01/30 02:43:11;;;;;;;31.30;3.15;;;5.60;79.90;;;;;;4152487;28;20035;-89
2023/01/30 02:45:40;;;;;;;27.63;2.83;;;5.50;79.80;;;;;;4147783;28;20525;-89
2023/01/30 02:48:01;;;;;;;27.27;3.40;;;5.70;80.00;;;;;;4152486;28;20532;-89
2023/01/30 02:50:53;;;;;;;30.13;3.03;;;5.50;80.60;;;;;;4145111;28;20587;-88
2023/01/30 02:53:14;;;;;;;26.45;3.58;;;5.50;79.90;;;;;;4147402;28;20026;-88
2023/01/30 02:55:38;;;;;;;24.95;3.47;;;5.50;79.80;;;;;;4150774;28;20778;-88
2023/01/30 02:58:01;;;;;;;30.60;4.28;;;5.50;79.70;;;;;;4150735;28;20439;-89
2023/01/30 03:00:54;;;;;;;26.15;3.30;;;5.50;79.70;;;;;;4145697;28;20515;-88
2023/01/30 03:03:48;;;;;;;22.40;3.10;;;5.50;80.50;;;;;;4175310;28;20032;-89
2023/01/30 03:06:27;;;;;;;33.60;3.50;;;5.50;79.70;;;;;;4154186;28;20678;-89
2023/01/30 03:08:38;;;;;;;25.88;3.63;;;5.50;79.60;;;;;;4159585;28;20106;-88
2023/01/30 03:10:50;;;;;;;25.33;3.80;;;5.50;79.50;;;;;;4148384;28;20025;-90
2023/01/30 03:13:16;;;;;;;24.67;2.97;;;5.50;79.50;;;;;;4148807;28;20041;-88
2023/01/30 03:15:28;;;;;;;31.52;3.60;;;5.50;79.50;;;;;;4178224;28;20029;-88
2023/01/30 03:17:31;;;;;;;27.10;3.30;;;5.50;79.40;;;;;;4179909;28;20025;-88
2023/01/30 03:19:33;;;;;;;23.00;3.20;;;5.50;79.30;;;;;;4147515;28;20034;-88
2023/01/30 03:21:33;;;;;;;35.17;3.42;;;5.50;79.40;;;;;;4149714;28;20026;-88
2023/01/30 03:23:34;;;;;;;36.92;4.03;;;5.40;79.20;;;;;;4138427;28;20508;-89
2023/01/30 03:25:38;;;;;;;29.75;3.42;;;5.40;79.20;;;;;;4149504;28;20037;-89
2023/01/30 03:27:39;;;;;;;24.40;2.97;;;5.40;79.20;;;;;;4135207;28;20036;-89
2023/01/30 03:29:40;;;;;;;31.75;3.47;;;5.40;78.90;;;;;;4145303;28;20033;-89
2023/01/30 03:31:41;;;;;;;38.58;3.92;;;5.40;78.80;;;;;;4164050;28;20037;-88
2023/01/30 03:33:42;;;;;;;21.10;3.42;;;5.40;78.80;;;;;;4147454;28;20034;-89
2023/01/30 03:35:43;;;;;;;19.05;2.42;;;5.30;78.60;;;;;;4153667;28;20127;-88
2023/01/30 03:37:45;;;;;;;22.42;2.88;;;5.50;78.60;;;;;;4165118;28;20057;-89
2023/01/30 03:39:46;;;;;;;31.70;4.15;;;5.30;78.30;;;;;;4166440;28;20045;-89
2023/01/30 03:41:47;;;;;;;23.17;3.28;;;5.40;78.20;;;;;;4150443;28;20780;-89
2023/01/30 03:43:47;;;;;;;23.60;2.95;;;5.30;77.90;;;;;;4143088;28;20171;-89
2023/01/30 03:45:48;;;;;;;24.40;3.20;;;5.30;77.80;;;;;;4152192;28;20200;-89
2023/01/30 03:47:48;;;;;;;23.30;2.83;;;5.30;77.80;;;;;;4148690;28;20029;-88
2023/01/30 03:49:49;;;;;;;30.15;3.50;;;5.30;77.70;;;;;;4148502;28;20100;-89
2023/01/30 03:51:50;;;;;;;34.92;3.15;;;5.30;77.60;;;;;;4150544;28;20112;-88
2023/01/30 03:53:50;;;;;;;23.30;3.92;;;5.30;77.70;;;;;;4157851;28;20037;-89
2023/01/30 03:55:51;;;;;;;29.20;3.10;;;5.20;77.70;;;;;;4149899;28;20033;-88
2023/01/30 03:57:55;;;;;;;21.45;3.22;;;5.30;77.80;;;;;;4154652;28;20033;-89
2023/01/30 03:59:57;;;;;;;37.72;3.33;;;5.30;77.80;;;;;;4139238;28;20029;-89
2023/01/30 04:01:57;;;;;;;27.30;3.40;;;5.20;77.70;;;;;;4141129;28;20489;-88
2023/01/30 04:03:58;;;;;;;27.75;3.65;;;5.30;77.70;;;;;;4151977;28;20063;-89
2023/01/30 04:05:59;;;;;;;21.45;3.28;;;5.30;77.70;;;;;;4186738;28;20134;-89
2023/01/30 04:07:59;;;;;;;38.72;3.65;;;5.20;77.50;;;;;;4153421;28;20021;-89
2023/01/30 04:10:00;;;;;;;28.02;4.00;;;5.30;77.40;;;;;;4140484;28;20298;-89
2023/01/30 04:12:01;;;;;;;32.15;3.95;;;5.20;77.40;;;;;;4135207;28;20038;-89
2023/01/30 04:14:01;;;;;;;34.67;3.85;;;5.30;77.50;;;;;;4151876;28;20022;-88
2023/01/30 04:16:23;;;;;;;32.65;4.05;;;5.20;77.50;;;;;;4132637;28;20026;-89
2023/01/30 04:18:23;;;;;;;38.10;4.15;;;5.20;77.70;;;;;;4136366;28;20037;-89
2023/01/30 04:20:24;;;;;;;26.58;3.83;;;5.10;77.70;;;;;;4143480;28;20030;-89
2023/01/30 04:22:25;;;;;;;38.92;4.57;;;5.10;77.90;;;;;;4164547;28;20145;-88
2023/01/30 04:24:25;;;;;;;33.50;4.47;;;5.10;78.10;;;;;;4150350;28;20115;-89
2023/01/30 04:26:26;;;;;;;36.22;4.70;;;5.10;78.10;;;;;;4150097;28;20109;-90
2023/01/30 04:28:27;;;;;;;27.10;3.72;;;5.10;78.20;;;;;;4187542;28;20027;-90
2023/01/30 04:30:27;;;;;;;30.42;4.38;;;5.10;78.20;;;;;;4152043;28;20021;-89
2023/01/30 04:32:28;;;;;;;31.55;3.80;;;5.10;78.20;;;;;;4155341;28;20069;-89
2023/01/30 04:34:30;;;;;;;30.50;4.07;;;5.10;78.30;;;;;;4152697;28;20433;-90
2023/01/30 04:36:30;;;;;;;30.20;4.15;;;5.10;78.40;;;;;;4136441;28;20033;-88
2023/01/30 04:38:32;;;;;;;36.03;4.03;;;5.10;78.50;;;;;;4156238;28;20859;-90
2023/01/30 04:40:33;;;;;;;34.17;4.38;;;5.10;78.40;;;;;;4145871;28;20154;-89
2023/01/30 04:42:33;;;;;;;27.85;4.00;;;5.10;78.50;;;;;;4167590;28;20067;-90
2023/01/30 04:44:34;;;;;;;25.83;4.22;;;5.10;78.40;;;;;;4154823;28;20060;-89
2023/01/30 04:46:35;;;;;;;33.90;4.25;;;5.10;78.20;;;;;;4149788;28;20026;-89
2023/01/30 04:48:35;;;;;;;29.95;3.42;;;5.10;77.60;;;;;;4138709;28;20026;-91
2023/01/30 04:50:37;;;;;;;29.20;3.25;;;5.10;77.30;;;;;;4166790;28;20053;-90
2023/01/30 04:52:37;;;;;;;15.23;2.15;;;5.10;76.80;;;;;;4151782;28;20065;-88
2023/01/30 04:54:38;;;;;;;17.80;2.40;;;5.00;76.50;;;;;;4178900;28;20029;-89
2023/01/30 04:56:39;;;;;;;15.07;1.60;;;5.00;76.00;;;;;;4148146;28;20487;-86
2023/01/30 04:58:39;;;;;;;11.80;1.45;;;4.90;75.10;;;;;;4152709;28;20033;-88
2023/01/30 05:00:41;;;;;;;7.95;1.25;;;4.90;74.80;;;;;;4172549;28;20038;-88
2023/01/30 05:02:41;;;;;;;15.07;1.45;;;4.80;74.80;;;;;;4155235;28;20057;-86
2023/01/30 05:04:42;;;;;;;11.40;1.60;;;4.70;74.80;;;;;;4153113;28;21185;-87
2023/01/30 05:06:43;;;;;;;12.95;1.65;;;4.60;74.70;;;;;;4180839;28;20045;-89
2023/01/30 05:08:46;;;;;;;10.57;1.83;;;4.60;74.90;;;;;;4152374;28;20029;-88
2023/01/30 05:10:47;;;;;;;7.78;1.30;;;4.50;75.00;;;;;;4133518;28;20545;-88
2023/01/30 05:12:48;;;;;;;12.27;1.50;;;4.40;75.40;;;;;;4154006;28;20041;-88
2023/01/30 05:14:49;;;;;;;8.32;1.33;;;4.60;75.80;;;;;;4150215;28;20041;-87
2023/01/30 05:16:49;;;;;;;13.32;1.30;;;4.40;75.90;;;;;;4146201;28;20104;-88
2023/01/30 05:18:51;;;;;;;15.23;1.35;;;4.30;75.90;;;;;;4171063;28;20080;-86
2023/01/30 05:20:52;;;;;;;15.35;1.55;;;4.30;76.10;;;;;;4197282;28;20053;-88
2023/01/30 05:22:55;;;;;;;19.23;2.67;;;4.30;76.30;;;;;;4171378;28;20057;-89
2023/01/30 05:24:56;;;;;;;13.60;1.90;;;4.20;76.50;;;;;;4168278;28;20032;-89
2023/01/30 05:27:17;;;;;;;13.48;1.67;;;4.20;76.80;;;;;;4153435;28;20038;-87
2023/01/30 05:29:37;;;;;;;11.88;1.58;;;4.20;77.00;;;;;;4158789;28;20120;-87
2023/01/30 05:31:58;;;;;;;14.43;2.08;;;4.20;77.10;;;;;;4151526;28;20092;-88
2023/01/30 05:34:19;;;;;;;18.58;2.50;;;4.20;77.10;;;;;;4151550;28;20041;-89
2023/01/30 05:36:39;;;;;;;19.98;1.92;;;4.20;77.50;;;;;;4156180;28;20037;-90
2023/01/30 05:39:00;;;;;;;20.23;2.25;;;4.20;77.70;;;;;;4151228;28;20038;-89
2023/01/30 05:41:21;;;;;;;25.15;3.45;;;4.20;77.90;;;;;;4148676;28;20120;-88
2023/01/30 05:43:42;;;;;;;24.35;3.10;;;4.20;78.00;;;;;;4147846;28;20064;-88
2023/01/30 05:46:04;;;;;;;29.73;3.70;;;4.20;78.30;;;;;;4176070;28;20078;-88
2023/01/30 05:48:05;;;;;;;32.42;4.40;;;4.20;78.30;;;;;;4152527;28;20038;-89
2023/01/30 05:50:06;;;;;;;36.10;4.10;;;4.20;78.60;;;;;;4162024;28;20057;-88
2023/01/30 05:52:07;;;;;;;36.92;4.22;;;4.20;78.80;;;;;;4153369;28;20018;-88
2023/01/30 05:54:07;;;;;;;32.67;4.47;;;4.20;78.90;;;;;;4151072;28;20425;-89
2023/01/30 05:56:08;;;;;;;32.08;3.40;;;4.30;79.10;;;;;;4154820;28;20025;-90
2023/01/30 05:58:10;;;;;;;39.33;4.05;;;4.30;79.10;;;;;;4146965;28;20478;-89
2023/01/30 06:00:11;;;;;;;36.58;3.92;;;4.30;79.10;;;;;;4142684;28;20028;-89
2023/01/30 06:02:11;;;;;;;31.65;3.97;;;4.30;79.10;;;;;;4135244;28;20044;-90
2023/01/30 06:04:12;;;;;;;34.95;4.82;;;4.30;79.00;;;;;;4147720;28;20093;-87
2023/01/30 06:06:13;;;;;;;44.80;4.65;;;4.40;79.10;;;;;;4157765;28;20544;-89
2023/01/30 06:08:14;;;;;;;32.47;3.90;;;4.40;79.00;;;;;;4152940;28;20038;-88
2023/01/30 06:10:15;;;;;;;37.85;4.88;;;4.40;78.90;;;;;;4167540;28;20505;-88
2023/01/30 06:12:16;;;;;;;29.75;3.55;;;4.40;78.80;;;;;;4176803;28;20574;-89
2023/01/30 06:14:17;;;;;;;46.35;4.93;;;4.50;78.70;;;;;;4148733;28;20053;-89
2023/01/30 06:16:18;;;;;;;29.77;4.35;;;4.50;78.30;;;;;;4166936;28;20835;-88
2023/01/30 06:18:19;;;;;;;32.55;4.20;;;4.50;78.00;;;;;;4156484;28;20021;-89
2023/01/30 06:20:20;;;;;;;23.83;2.95;;;4.50;78.00;;;;;;4150019;28;20025;-88
2023/01/30 06:22:20;;;;;;;31.45;4.25;;;4.50;77.90;;;;;;4180767;28;20024;-89
2023/01/30 06:24:21;;;;;;;28.50;3.95;;;4.50;77.70;;;;;;4151875;28;20041;-90
2023/01/30 06:26:21;;;;;;;38.03;4.25;;;4.50;77.80;;;;;;4172063;28;20076;-89
2023/01/30 06:28:23;;;;;;;29.98;4.18;;;4.50;77.70;;;;;;4150599;28;20100;-88
2023/01/30 06:30:24;;;;;;;37.97;4.65;;;4.50;77.80;;;;;;4147215;28;20565;-89
2023/01/30 06:32:24;;;;;;;30.75;3.90;;;4.60;77.80;;;;;;4181911;28;20032;-88
2023/01/30 06:34:25;;;;;;;35.55;3.88;;;4.60;77.70;;;;;;4148997;28;20029;-88
2023/01/30 06:36:25;;;;;;;24.10;3.50;;;4.60;77.70;;;;;;4150389;28;20109;-89
2023/01/30 06:38:26;;;;;;;39.88;4.78;;;4.60;77.70;;;;;;4157529;28;20033;-90
2023/01/30 06:40:27;;;;;;;34.47;4.20;;;4.60;77.60;;;;;;4149516;28;20497;-88
2023/01/30 06:42:27;;;;;;;40.03;4.57;;;4.60;77.70;;;;;;4147151;28;20022;-88
2023/01/30 06:44:28;;;;;;;33.25;3.50;;;4.60;77.80;;;;;;4153639;28;20075;-88
2023/01/30 06:46:29;;;;;;;19.70;3.00;;;4.70;77.90;;;;;;4152916;28;20039;-88
2023/01/30 06:48:30;;;;;;;18.90;2.50;;;4.70;77.90;;;;;;4153020;28;20025;-90
2023/01/30 06:50:31;;;;;;;20.33;2.33;;;4.60;77.60;;;;;;4177666;28;20124;-88
2023/01/30 06:52:31;;;;;;;24.42;3.10;;;4.60;77.50;;;;;;4153852;28;20033;-89
2023/01/30 06:54:32;;;;;;;26.63;2.60;;;4.70;77.20;;;;;;4153225;28;20673;-90
2023/01/30 06:56:33;;;;;;;25.10;3.03;;;4.50;76.90;;;;;;4149487;28;20029;-89
2023/01/30 06:58:33;;;;;;;26.73;3.00;;;4.50;76.80;;;;;;4156228;28;20477;-88
2023/01/30 07:00:38;;;;;;;25.63;3.05;;;4.50;76.90;;;;;;4152932;28;20033;-89
2023/01/30 07:02:39;;;;;;;28.30;3.08;;;4.60;77.00;;;;;;4150158;28;20018;-89
2023/01/30 07:04:40;;;;;;;28.13;3.70;;;4.60;77.10;;;;;;4155624;28;20475;-89
2023/01/30 07:06:41;;;;;;;26.00;3.92;;;4.40;77.20;;;;;;4147952;28;20033;-89
2023/01/30 07:08:43;;;;;;;28.65;3.65;;;4.50;77.50;;;;;;4157165;28;20029;-89
2023/01/30 07:10:44;;;;;;;17.80;2.90;;;4.40;77.70;;;;;;4141600;28;20030;-90
2023/01/30 07:13:04;;;;;;;20.60;2.38;;;4.40;77.90;;;;;;4155585;28;20076;-89
2023/01/30 07:15:17;;;;;;;28.63;2.95;;;4.40;78.10;;;;;;4154695;28;20032;-88
2023/01/30 07:17:42;;;;;;;16.98;2.67;;;4.40;78.00;;;;;;4154917;28;20493;-88
2023/01/30 07:20:02;;;;;;;19.20;2.45;;;4.40;78.10;;;;;;4145227;28;20079;-89
2023/01/30 07:22:23;;;;;;;16.20;2.42;;;4.30;78.00;;;;;;4156284;28;20026;-89
2023/01/30 07:24:44;;;;;;;14.57;2.10;;;4.30;78.00;;;;;;4154607;28;20029;-89
2023/01/30 07:26:52;;;;;;;16.60;1.92;;;4.30;77.80;;;;;;4144676;28;20563;-89
2023/01/30 07:29:12;;;;;;;13.55;1.77;;;4.30;77.60;;;;;;4147763;28;20034;-90
2023/01/30 07:31:33;;;;;;;12.55;1.30;;;4.30;77.60;;;;;;4153137;28;20037;-88
2023/01/30 07:33:53;;;;;;;9.23;1.65;;;4.20;77.50;;;;;;4149787;28;20034;-89
2023/01/30 07:36:14;;;;;;;10.48;1.50;;;4.20;77.60;;;;;;4151520;28;20242;-88
2023/01/30 07:38:35;;;;;;;7.57;1.30;;;4.10;77.60;;;;;;4155331;28;20442;-89
2023/01/30 07:40:58;;;;;;;10.32;1.33;;;4.10;77.70;;;;;;4149258;28;21005;-90
2023/01/30 07:43:19;;;;;;;11.88;1.50;;;4.10;77.70;;;;;;4152479;28;20026;-89
2023/01/30 07:45:24;;;;;;;6.00;1.20;;;4.10;77.60;;;;;;4152954;28;20036;-90
2023/01/30 07:47:25;;;;;;;4.93;0.90;;;4.00;77.60;;;;;;4152447;28;20530;-90
2023/01/30 07:49:26;;;;;;;10.90;1.13;;;4.00;77.80;;;;;;4152373;28;20112;-90
2023/01/30 07:51:27;;;;;;;10.18;1.17;;;4.00;77.80;;;;;;4152992;28;20060;-88
2023/01/30 07:53:27;;;;;;;10.40;0.70;;;3.90;77.80;;;;;;4153122;28;20022;-89
2023/01/30 07:55:28;;;;;;;4.53;0.80;;;3.90;77.80;;;;;;4180838;28;20032;-89
2023/01/30 07:57:29;;;;;;;7.80;0.70;;;3.80;77.60;;;;;;4151310;28;20061;-90
2023/01/30 07:59:29;;;;;;;5.55;1.00;;;3.80;77.60;;;;;;4152704;28;20026;-89
2023/01/30 08:01:31;;;;;;;8.45;1.10;;;3.80;77.50;;;;;;4148073;28;20093;-89
2023/01/30 08:03:32;;;;;;;14.40;1.27;;;3.80;77.40;;;;;;4147410;28;20041;-88
2023/01/30 08:05:32;;;;;;;9.68;1.35;;;3.80;77.30;;;;;;4152367;28;20026;-89
2023/01/30 08:07:33;;;;;;;7.53;0.98;;;3.80;77.30;;;;;;4151058;28;20030;-89
2023/01/30 08:09:34;;;;;;;9.25;1.00;;;3.80;77.20;;;;;;4146414;28;20030;-89
2023/01/30 08:11:34;;;;;;;9.52;1.15;;;3.80;77.20;;;;;;4163197;28;20013;-90
2023/01/30 08:13:35;;;;;;;7.55;1.08;;;3.80;77.20;;;;;;4147682;28;20025;-90
2023/01/30 08:15:36;;;;;;;7.63;1.02;;;3.80;77.20;;;;;;4149766;28;20533;-89
2023/01/30 08:17:37;;;;;;;12.70;1.50;;;3.90;77.30;;;;;;4148494;28;20029;-89
2023/01/30 08:19:38;;;;;;;9.55;1.55;;;3.70;77.30;;;;;;4140588;28;20021;-89
2023/01/30 08:21:39;;;;;;;12.95;1.60;;;3.80;77.40;;;;;;4166143;28;20032;-89
2023/01/30 08:23:39;;;;;;;9.30;1.70;;;3.70;77.50;;;;;;4155448;28;20021;-89
2023/01/30 08:25:41;;;;;;;15.32;1.95;;;3.70;77.70;;;;;;4155535;28;20148;-91
2023/01/30 08:27:42;;;;;;;15.85;1.90;;;3.70;77.90;;;;;;4137424;28;20057;-89
2023/01/30 08:29:43;;;;;;;13.95;1.63;;;3.80;78.00;;;;;;4156186;28;20052;-89
2023/01/30 08:31:44;;;;;;;14.75;2.08;;;3.70;78.10;;;;;;4151690;28;20421;-89
2023/01/30 08:33:44;;;;;;;21.25;2.88;;;3.80;78.30;;;;;;4154525;28;20018;-89
2023/01/30 08:35:46;;;;;;;23.20;3.30;;;3.80;78.50;;;;;;4154883;28;20096;-88
2023/01/30 08:38:07;;;;;;;18.30;2.40;;;3.80;78.60;;;;;;4155758;28;20481;-90
2023/01/30 08:40:28;;;;;;;23.95;2.70;;;3.80;78.70;;;;;;4153100;28;20545;-90
2023/01/30 08:42:49;;;;;;;16.65;2.15;;;3.80;79.00;;;;;;4158297;28;20409;-90
2023/01/30 08:45:10;;;;;;;22.42;2.50;;;3.90;79.40;;;;;;4152769;28;20429;-90
2023/01/30 08:47:31;;;;;;;27.08;3.20;;;4.00;79.60;;;;;;4153242;28;20512;-90
2023/01/30 08:49:31;;;;;;;21.48;2.83;;;4.00;79.60;;;;;;4157995;28;20021;-90
2023/01/30 08:51:52;;;;;;;18.23;2.70;;;4.10;79.70;;;;;;4154150;28;20030;-89
2023/01/30 08:54:13;;;;;;;23.13;2.67;;;4.20;79.90;;;;;;4153269;28;20057;-90
2023/01/30 08:56:33;;;;;;;26.92;2.85;;;4.20;79.70;;;;;;4153874;28;20530;-90
2023/01/30 08:58:54;;;;;;;21.40;3.80;;;4.30;79.60;;;;;;4154655;28;20485;-90
2023/01/30 09:01:15;;;;;;;24.10;2.88;;;4.40;79.50;;;;;;4175749;28;20504;-90
2023/01/30 09:03:35;;;;;;;31.02;2.85;;;4.40;79.10;;;;;;4152218;28;20573;-89
2023/01/30 09:05:56;;;;;;;29.48;3.20;;;4.50;78.90;;;;;;4154394;28;20528;-89
2023/01/30 09:08:17;;;;;;;29.95;2.88;;;4.50;78.70;;;;;;4149124;28;20026;-90
2023/01/30 09:10:37;;;;;;;30.80;3.67;;;4.60;78.50;;;;;;4150817;28;20687;-90
2023/01/30 09:12:58;;;;;;;27.58;2.97;;;4.60;78.50;;;;;;4160823;28;20103;-90
2023/01/30 09:15:18;;;;;;;21.10;3.10;;;4.70;78.70;;;;;;4154058;28;20096;-89
2023/01/30 09:17:39;;;;;;;31.13;3.63;;;4.80;78.80;;;;;;4157412;28;20037;-90
2023/01/30 09:20:00;;;;;;;13.45;2.55;;;4.80;78.50;;;;;;4154305;28;20033;-89
2023/01/30 09:22:20;;;;;;;20.40;2.80;;;4.90;78.30;;;;;;4144973;28;20041;-89
2023/01/30 09:24:25;;;;;;;26.27;2.88;;;4.90;77.90;;;;;;4149862;28;20026;-90
2023/01/30 09:26:25;;;;;;;20.05;2.70;;;4.90;77.70;;;;;;4152429;28;20312;-89
2023/01/30 09:28:26;;;;;;;17.90;2.33;;;4.90;77.50;;;;;;4148711;28;20506;-89
2023/01/30 09:30:27;;;;;;;22.00;2.70;;;4.80;77.10;;;;;;4154950;28;20057;-89
2023/01/30 09:32:28;;;;;;;15.60;2.15;;;5.00;77.30;;;;;;4135939;28;20021;-89
2023/01/30 09:34:28;;;;;;;17.73;2.33;;;4.80;77.30;;;;;;4158386;28;20025;-89
2023/01/30 09:36:29;;;;;;;16.83;2.05;;;4.80;77.50;;;;;;4162061;28;20025;-90
2023/01/30 09:38:29;;;;;;;20.98;2.53;;;4.90;77.80;;;;;;4152117;28;20021;-90
2023/01/30 09:40:31;;;;;;;15.40;2.55;;;4.70;77.80;;;;;;4153469;28;20025;-89
2023/01/30 09:42:45;;;;;;;21.65;2.85;;;4.80;78.10;;;;;;4165214;28;20167;-89
2023/01/30 09:44:58;;;;;;;17.55;2.42;;;4.80;78.30;;;;;;4152239;28;20048;-90
2023/01/30 09:47:12;;;;;;;22.60;2.83;;;4.80;78.30;;;;;;4158368;28;20057;-90
2023/01/30 09:49:12;;;;;;;;;;;4.70;78.50;;;;;;4151404;28;20057;-89
2023/01/30 09:51:51;;;;;;;15.73;2.53;;;4.80;78.40;;;;;;4154441;28;19909;-90
2023/01/30 09:53:54;;;;;;;21.13;3.25;;;4.80;78.30;;;;;;4155253;28;20038;-89
2023/01/30 09:55:58;;;;;;;24.33;3.00;;;4.80;78.40;;;;;;4142665;28;20026;-90
2023/01/30 09:57:59;;;;;;;19.00;2.45;;;4.80;78.20;;;;;;4148057;28;20371;-89
2023/01/30 10:00:16;;;;;;;15.95;1.65;;;4.80;78.30;;;;;;4154436;28;20297;-90
2023/01/30 10:02:50;;;;;;;5.75;0.95;;;4.70;78.00;;;;;;4151349;28;20060;-89
2023/01/30 10:05:11;;;;;;;12.60;1.33;;;4.70;77.50;;;;;;4152769;28;20029;-88
2023/01/30 10:08:07;;;;;;;9.88;1.33;;;4.70;77.40;;;;;;4159080;28;20164;-90
2023/01/30 10:10:41;;;;;;;9.27;1.10;;;4.70;77.60;;;;;;4174561;28;20109;-90
2023/01/30 10:12:49;;;;;;;11.50;1.33;;;4.60;77.30;;;;;;4150144;28;20034;-89
2023/01/30 10:15:40;;;;;;;8.40;1.25;;;4.60;77.30;;;;;;4145504;28;20045;-88
2023/01/30 10:18:01;;;;;;;12.38;1.65;;;4.60;77.20;;;;;;4154590;28;20081;-89
2023/01/30 10:20:13;;;;;;;18.50;1.63;;;4.50;77.10;;;;;;4141692;28;20034;-90
2023/01/30 10:22:55;;;;;;;17.88;1.38;;;4.60;77.60;;;;;;4151528;28;20037;-90
2023/01/30 10:25:30;;;;;;;10.43;1.35;;;4.60;77.50;;;;;;4155573;28;20029;-89
2023/01/30 10:28:31;;;;;;;9.27;1.52;;;4.60;77.50;;;;;;4173532;28;20159;-88
2023/01/30 10:31:00;;;;;;;16.15;1.52;;;4.60;77.60;;;;;;4150710;28;20124;-88
2023/01/30 10:33:29;;;;;;;15.57;2.42;;;4.60;77.90;;;;;;4172903;28;20047;-89
2023/01/30 10:36:01;;;;;;;17.67;2.17;;;4.50;77.50;;;;;;4154262;28;20033;-90
2023/01/30 10:38:37;;;;;;;17.00;1.75;;;4.50;78.50;;;;;;4154329;28;20044;-90
2023/01/30 10:41:05;;;;;;;17.80;2.22;;;4.50;77.80;;;;;;4150484;28;20026;-89
2023/01/30 10:43:40;;;;;;;16.63;2.58;;;4.50;78.00;;;;;;4148135;28;20034;-90
2023/01/30 10:45:49;;;;;;;22.00;2.13;;;4.50;77.90;;;;;;4149512;28;20390;-90
2023/01/30 10:48:29;;;;;;;13.25;1.67;;;4.50;78.00;;;;;;4151379;28;20029;-90
2023/01/30 10:50:46;;;;;;;19.85;2.30;;;4.60;78.00;;;;;;4117765;28;20537;-90
2023/01/30 10:52:56;;;;;;;14.07;2.00;;;4.50;77.40;;;;;;4182327;28;20029;-90
2023/01/30 10:55:03;;;;;;;11.63;1.77;;;4.60;77.60;;;;;;4155056;28;20115;-90
2023/01/30 10:57:41;;;;;;;14.68;1.77;;;4.60;77.80;;;;;;4157597;28;20025;-91
2023/01/30 10:59:54;;;;;;;20.35;2.80;;;4.60;77.60;;;;;;4180147;28;20032;-88
2023/01/30 11:02:05;;;;;;;19.80;2.63;;;4.60;77.70;;;;;;4167209;28;20102;-89
2023/01/30 11:04:35;;;;;;;11.82;2.05;;;4.70;77.90;;;;;;4179992;28;20493;-91
2023/01/30 11:06:37;;;;;;;20.23;2.22;;;4.80;78.10;;;;;;4140228;28;20033;-89
2023/01/30 11:08:38;;;;;;;13.63;2.22;;;4.80;78.00;;;;;;4154576;28;20029;-89
2023/01/30 11:10:39;;;;;;;21.65;2.45;;;5.00;78.30;;;;;;4150241;28;20067;-90
2023/01/30 11:12:39;;;;;;;22.60;2.58;;;4.90;78.10;;;;;;4151815;28;20057;-90
2023/01/30 11:14:58;;;;;;;17.88;2.08;;;5.00;77.80;;;;;;4167465;28;20218;-91
2023/01/30 11:17:01;;;;;;;21.30;2.35;;;4.90;77.30;;;;;;4150355;28;20029;-90
2023/01/30 11:19:11;;;;;;;24.77;2.80;;;5.00;76.80;;;;;;4140004;28;20033;-89
2023/01/30 11:21:32;;;;;;;20.65;2.35;;;5.10;76.80;;;;;;4150356;28;20026;-91
2023/01/30 11:23:39;;;;;;;16.35;2.20;;;5.00;76.20;;;;;;4152020;28;20021;-90